sensor_id;sensor_type;location;lat;lon;timestamp;P1;durP1;ratioP1;P2;durP2;ratioP2
22111;SDS011;11222;50.872;4.312;2022-07-23T00:02:05;21.40;;;18.20;;
22111;SDS011;11222;50.872;4.312;2022-07-23T00:04:32;20.85;;;17.98;;
22111;SDS011;11222;50.872;4.312;2022-07-23T00:06:58;22.38;;;17.77;;
22111;SDS011;11222;50.872;4.312;2022-07-23T00:09:24;21.80;;;17.55;;
22111;SDS011;11222;50.872;4.312;2022-07-23T00:11:49;21.65;;;18.08;;
22111;SDS011;11222;50.872;4.312;2022-07-23T00:14:15;24.30;;;17.38;;
22111;SDS011;11222;50.872;4.312;2022-07-23T00:16:41;24.08;;;17.27;;
22111;SDS011;11222;50.872;4.312;2022-07-23T00:19:07;22.95;;;17.70;;
22111;SDS011;11222;50.872;4.312;2022-07-23T00:21:32;24.52;;;18.55;;
22111;SDS011;11222;50.872;4.312;2022-07-23T00:23:58;24.35;;;18.15;;
22111;SDS011;11222;50.872;4.312;2022-07-23T00:26:27;23.95;;;17.50;;
22111;SDS011;11222;50.872;4.312;2022-07-23T00:28:53;22.90;;;18.20;;
22111;SDS011;11222;50.872;4.312;2022-07-23T00:31:18;22.35;;;16.80;;
22111;SDS011;11222;50.872;4.312;2022-07-23T00:33:44;20.67;;;17.83;;
22111;SDS011;11222;50.872;4.312;2022-07-23T00:36:09;26.88;;;17.77;;
22111;SDS011;11222;50.872;4.312;2022-07-23T00:38:35;22.60;;;17.70;;
22111;SDS011;11222;50.872;4.312;2022-07-23T00:41:01;22.25;;;17.00;;
22111;SDS011;11222;50.872;4.312;2022-07-23T00:43:27;22.90;;;17.33;;
22111;SDS011;11222;50.872;4.312;2022-07-23T00:45:52;25.23;;;17.35;;
22111;SDS011;11222;50.872;4.312;2022-07-23T00:48:18;21.15;;;18.02;;
22111;SDS011;11222;50.872;4.312;2022-07-23T00:50:44;19.45;;;17.08;;
22111;SDS011;11222;50.872;4.312;2022-07-23T00:53:10;22.77;;;17.92;;
22111;SDS011;11222;50.872;4.312;2022-07-23T00:55:36;22.50;;;17.67;;
22111;SDS011;11222;50.872;4.312;2022-07-23T00:58:02;20.73;;;17.17;;
22111;SDS011;11222;50.872;4.312;2022-07-23T01:00:29;22.13;;;17.40;;
22111;SDS011;11222;50.872;4.312;2022-07-23T01:02:55;22.20;;;17.23;;
22111;SDS011;11222;50.872;4.312;2022-07-23T01:05:21;24.42;;;17.50;;
22111;SDS011;11222;50.872;4.312;2022-07-23T01:07:50;22.35;;;18.30;;
22111;SDS011;11222;50.872;4.312;2022-07-23T01:10:17;23.17;;;17.90;;
22111;SDS011;11222;50.872;4.312;2022-07-23T01:13:05;21.98;;;16.55;;
22111;SDS011;11222;50.872;4.312;2022-07-23T01:18:00;19.17;;;17.13;;
22111;SDS011;11222;50.872;4.312;2022-07-23T01:20:26;21.73;;;16.42;;
22111;SDS011;11222;50.872;4.312;2022-07-23T01:22:52;21.58;;;17.45;;
22111;SDS011;11222;50.872;4.312;2022-07-23T01:25:18;20.02;;;16.67;;
22111;SDS011;11222;50.872;4.312;2022-07-23T01:27:44;22.90;;;16.48;;
22111;SDS011;11222;50.872;4.312;2022-07-23T01:30:10;20.20;;;16.40;;
22111;SDS011;11222;50.872;4.312;2022-07-23T01:32:37;20.95;;;16.00;;
22111;SDS011;11222;50.872;4.312;2022-07-23T01:35:03;20.98;;;17.10;;
22111;SDS011;11222;50.872;4.312;2022-07-23T01:37:30;21.80;;;16.77;;
22111;SDS011;11222;50.872;4.312;2022-07-23T01:39:56;20.50;;;16.83;;
22111;SDS011;11222;50.872;4.312;2022-07-23T01:42:22;22.10;;;16.55;;
22111;SDS011;11222;50.872;4.312;2022-07-23T01:44:48;24.25;;;17.75;;
22111;SDS011;11222;50.872;4.312;2022-07-23T01:47:14;22.63;;;17.55;;
22111;SDS011;11222;50.872;4.312;2022-07-23T01:49:40;21.65;;;17.45;;
22111;SDS011;11222;50.872;4.312;2022-07-23T01:52:06;23.02;;;17.27;;
22111;SDS011;11222;50.872;4.312;2022-07-23T01:54:35;20.02;;;17.25;;
22111;SDS011;11222;50.872;4.312;2022-07-23T01:57:02;25.05;;;17.48;;
22111;SDS011;11222;50.872;4.312;2022-07-23T01:59:28;22.17;;;16.75;;
22111;SDS011;11222;50.872;4.312;2022-07-23T02:01:54;22.27;;;16.33;;
22111;SDS011;11222;50.872;4.312;2022-07-23T02:04:20;21.35;;;16.48;;
22111;SDS011;11222;50.872;4.312;2022-07-23T02:06:47;22.33;;;17.13;;
22111;SDS011;11222;50.872;4.312;2022-07-23T02:09:13;20.85;;;17.05;;
22111;SDS011;11222;50.872;4.312;2022-07-23T02:11:39;21.83;;;16.45;;
22111;SDS011;11222;50.872;4.312;2022-07-23T02:14:05;20.77;;;17.52;;
22111;SDS011;11222;50.872;4.312;2022-07-23T02:16:31;24.13;;;17.08;;
22111;SDS011;11222;50.872;4.312;2022-07-23T02:18:57;22.33;;;16.98;;
22111;SDS011;11222;50.872;4.312;2022-07-23T02:21:22;23.50;;;16.98;;
22111;SDS011;11222;50.872;4.312;2022-07-23T02:23:48;26.90;;;18.00;;
22111;SDS011;11222;50.872;4.312;2022-07-23T02:26:14;22.88;;;17.50;;
22111;SDS011;11222;50.872;4.312;2022-07-23T02:28:39;21.92;;;18.23;;
22111;SDS011;11222;50.872;4.312;2022-07-23T02:31:05;22.10;;;18.00;;
22111;SDS011;11222;50.872;4.312;2022-07-23T02:33:31;22.33;;;17.38;;
22111;SDS011;11222;50.872;4.312;2022-07-23T02:35:58;25.23;;;17.27;;
22111;SDS011;11222;50.872;4.312;2022-07-23T02:38:24;25.20;;;18.80;;
22111;SDS011;11222;50.872;4.312;2022-07-23T02:40:50;24.75;;;17.95;;
22111;SDS011;11222;50.872;4.312;2022-07-23T02:43:15;22.23;;;18.13;;
22111;SDS011;11222;50.872;4.312;2022-07-23T02:45:41;24.10;;;18.75;;
22111;SDS011;11222;50.872;4.312;2022-07-23T02:48:07;23.85;;;18.80;;
22111;SDS011;11222;50.872;4.312;2022-07-23T02:50:32;25.00;;;18.35;;
22111;SDS011;11222;50.872;4.312;2022-07-23T02:52:58;23.15;;;17.80;;
22111;SDS011;11222;50.872;4.312;2022-07-23T02:55:24;25.30;;;18.40;;
22111;SDS011;11222;50.872;4.312;2022-07-23T02:57:50;23.05;;;17.42;;
22111;SDS011;11222;50.872;4.312;2022-07-23T03:00:15;24.30;;;17.35;;
22111;SDS011;11222;50.872;4.312;2022-07-23T03:02:41;23.23;;;18.50;;
22111;SDS011;11222;50.872;4.312;2022-07-23T03:05:07;23.10;;;18.80;;
22111;SDS011;11222;50.872;4.312;2022-07-23T03:07:33;23.27;;;18.00;;
22111;SDS011;11222;50.872;4.312;2022-07-23T03:09:59;25.67;;;18.77;;
22111;SDS011;11222;50.872;4.312;2022-07-23T03:12:24;23.02;;;17.75;;
22111;SDS011;11222;50.872;4.312;2022-07-23T03:14:50;22.63;;;18.10;;
22111;SDS011;11222;50.872;4.312;2022-07-23T03:17:16;22.67;;;17.63;;
22111;SDS011;11222;50.872;4.312;2022-07-23T03:19:42;25.10;;;18.02;;
22111;SDS011;11222;50.872;4.312;2022-07-23T03:22:08;21.88;;;17.10;;
22111;SDS011;11222;50.872;4.312;2022-07-23T03:24:33;23.83;;;18.13;;
22111;SDS011;11222;50.872;4.312;2022-07-23T03:27:18;25.30;;;17.95;;
22111;SDS011;11222;50.872;4.312;2022-07-23T03:29:44;20.02;;;17.25;;
22111;SDS011;11222;50.872;4.312;2022-07-23T03:32:09;25.23;;;17.63;;
22111;SDS011;11222;50.872;4.312;2022-07-23T03:34:35;22.63;;;18.20;;
22111;SDS011;11222;50.872;4.312;2022-07-23T03:37:01;23.50;;;18.10;;
22111;SDS011;11222;50.872;4.312;2022-07-23T03:39:27;22.65;;;18.05;;
22111;SDS011;11222;50.872;4.312;2022-07-23T03:41:53;24.13;;;18.40;;
22111;SDS011;11222;50.872;4.312;2022-07-23T03:44:18;23.77;;;19.10;;
22111;SDS011;11222;50.872;4.312;2022-07-23T03:46:44;24.55;;;19.15;;
22111;SDS011;11222;50.872;4.312;2022-07-23T03:49:10;25.05;;;19.40;;
22111;SDS011;11222;50.872;4.312;2022-07-23T03:51:35;27.95;;;19.20;;
22111;SDS011;11222;50.872;4.312;2022-07-23T03:54:01;25.60;;;19.05;;
22111;SDS011;11222;50.872;4.312;2022-07-23T03:56:26;23.55;;;18.00;;
22111;SDS011;11222;50.872;4.312;2022-07-23T03:58:52;24.00;;;18.50;;
22111;SDS011;11222;50.872;4.312;2022-07-23T04:01:18;25.17;;;19.00;;
22111;SDS011;11222;50.872;4.312;2022-07-23T04:03:44;27.40;;;19.65;;
22111;SDS011;11222;50.872;4.312;2022-07-23T04:06:11;23.70;;;19.02;;
22111;SDS011;11222;50.872;4.312;2022-07-23T04:08:38;28.38;;;19.73;;
22111;SDS011;11222;50.872;4.312;2022-07-23T04:11:03;25.23;;;19.58;;
22111;SDS011;11222;50.872;4.312;2022-07-23T04:13:29;24.23;;;18.75;;
22111;SDS011;11222;50.872;4.312;2022-07-23T04:15:55;22.98;;;18.85;;
22111;SDS011;11222;50.872;4.312;2022-07-23T04:18:20;26.65;;;19.13;;
22111;SDS011;11222;50.872;4.312;2022-07-23T04:20:49;26.88;;;19.08;;
22111;SDS011;11222;50.872;4.312;2022-07-23T04:23:16;24.85;;;19.10;;
22111;SDS011;11222;50.872;4.312;2022-07-23T04:25:42;25.13;;;18.60;;
22111;SDS011;11222;50.872;4.312;2022-07-23T04:28:07;25.48;;;18.42;;
22111;SDS011;11222;50.872;4.312;2022-07-23T04:30:33;22.95;;;17.65;;
22111;SDS011;11222;50.872;4.312;2022-07-23T04:32:59;20.65;;;17.50;;
22111;SDS011;11222;50.872;4.312;2022-07-23T04:35:25;21.80;;;17.60;;
22111;SDS011;11222;50.872;4.312;2022-07-23T04:37:51;22.20;;;17.30;;
22111;SDS011;11222;50.872;4.312;2022-07-23T04:40:16;24.05;;;16.95;;
22111;SDS011;11222;50.872;4.312;2022-07-23T04:42:42;21.88;;;16.88;;
22111;SDS011;11222;50.872;4.312;2022-07-23T04:45:08;19.80;;;16.58;;
22111;SDS011;11222;50.872;4.312;2022-07-23T04:47:34;21.38;;;15.98;;
22111;SDS011;11222;50.872;4.312;2022-07-23T04:50:00;19.27;;;16.13;;
22111;SDS011;11222;50.872;4.312;2022-07-23T04:52:26;21.10;;;15.98;;
22111;SDS011;11222;50.872;4.312;2022-07-23T04:54:51;21.80;;;16.35;;
22111;SDS011;11222;50.872;4.312;2022-07-23T04:57:17;19.92;;;16.75;;
22111;SDS011;11222;50.872;4.312;2022-07-23T04:59:43;21.40;;;16.90;;
22111;SDS011;11222;50.872;4.312;2022-07-23T05:02:08;19.48;;;16.73;;
22111;SDS011;11222;50.872;4.312;2022-07-23T05:04:34;21.42;;;17.20;;
22111;SDS011;11222;50.872;4.312;2022-07-23T05:07:00;20.88;;;17.00;;
22111;SDS011;11222;50.872;4.312;2022-07-23T05:09:25;20.70;;;17.67;;
22111;SDS011;11222;50.872;4.312;2022-07-23T05:11:51;22.73;;;17.13;;
22111;SDS011;11222;50.872;4.312;2022-07-23T05:14:17;19.80;;;16.95;;
22111;SDS011;11222;50.872;4.312;2022-07-23T05:16:42;20.27;;;16.45;;
22111;SDS011;11222;50.872;4.312;2022-07-23T05:19:08;18.83;;;15.02;;
22111;SDS011;11222;50.872;4.312;2022-07-23T05:21:34;19.58;;;15.38;;
22111;SDS011;11222;50.872;4.312;2022-07-23T05:23:59;21.98;;;15.75;;
22111;SDS011;11222;50.872;4.312;2022-07-23T05:26:25;17.25;;;14.90;;
22111;SDS011;11222;50.872;4.312;2022-07-23T05:28:51;19.02;;;14.73;;
22111;SDS011;11222;50.872;4.312;2022-07-23T05:31:17;18.67;;;14.35;;
22111;SDS011;11222;50.872;4.312;2022-07-23T05:33:43;19.65;;;14.85;;
22111;SDS011;11222;50.872;4.312;2022-07-23T05:36:09;19.15;;;14.02;;
22111;SDS011;11222;50.872;4.312;2022-07-23T05:38:35;20.48;;;14.63;;
22111;SDS011;11222;50.872;4.312;2022-07-23T05:41:01;18.77;;;14.50;;
22111;SDS011;11222;50.872;4.312;2022-07-23T05:43:27;18.35;;;14.52;;
22111;SDS011;11222;50.872;4.312;2022-07-23T05:45:53;20.90;;;14.55;;
22111;SDS011;11222;50.872;4.312;2022-07-23T05:48:19;22.45;;;15.38;;
22111;SDS011;11222;50.872;4.312;2022-07-23T05:50:44;19.05;;;15.23;;
22111;SDS011;11222;50.872;4.312;2022-07-23T05:53:10;20.42;;;15.90;;
22111;SDS011;11222;50.872;4.312;2022-07-23T05:55:36;22.63;;;15.32;;
22111;SDS011;11222;50.872;4.312;2022-07-23T05:58:01;18.33;;;15.63;;
22111;SDS011;11222;50.872;4.312;2022-07-23T06:00:27;17.98;;;15.38;;
22111;SDS011;11222;50.872;4.312;2022-07-23T06:02:53;18.77;;;15.30;;
22111;SDS011;11222;50.872;4.312;2022-07-23T06:05:19;19.65;;;14.52;;
22111;SDS011;11222;50.872;4.312;2022-07-23T06:07:45;20.02;;;15.27;;
22111;SDS011;11222;50.872;4.312;2022-07-23T06:10:10;17.67;;;15.60;;
22111;SDS011;11222;50.872;4.312;2022-07-23T06:12:36;19.13;;;15.77;;
22111;SDS011;11222;50.872;4.312;2022-07-23T06:15:03;20.83;;;15.30;;
22111;SDS011;11222;50.872;4.312;2022-07-23T06:17:29;22.55;;;15.27;;
22111;SDS011;11222;50.872;4.312;2022-07-23T06:19:55;20.98;;;16.15;;
22111;SDS011;11222;50.872;4.312;2022-07-23T06:22:21;21.48;;;15.80;;
22111;SDS011;11222;50.872;4.312;2022-07-23T06:24:47;18.20;;;15.40;;
22111;SDS011;11222;50.872;4.312;2022-07-23T06:27:13;19.80;;;16.63;;
22111;SDS011;11222;50.872;4.312;2022-07-23T06:29:39;18.75;;;15.75;;
22111;SDS011;11222;50.872;4.312;2022-07-23T06:32:05;20.13;;;16.05;;
22111;SDS011;11222;50.872;4.312;2022-07-23T06:34:32;17.92;;;15.30;;
22111;SDS011;11222;50.872;4.312;2022-07-23T06:36:58;21.92;;;16.23;;
22111;SDS011;11222;50.872;4.312;2022-07-23T06:39:24;17.88;;;15.55;;
22111;SDS011;11222;50.872;4.312;2022-07-23T06:41:50;21.92;;;16.08;;
22111;SDS011;11222;50.872;4.312;2022-07-23T06:44:15;23.08;;;16.40;;
22111;SDS011;11222;50.872;4.312;2022-07-23T06:46:41;21.05;;;15.80;;
22111;SDS011;11222;50.872;4.312;2022-07-23T06:49:07;18.13;;;15.57;;
22111;SDS011;11222;50.872;4.312;2022-07-23T06:51:33;19.73;;;15.07;;
22111;SDS011;11222;50.872;4.312;2022-07-23T06:53:59;17.48;;;15.07;;
22111;SDS011;11222;50.872;4.312;2022-07-23T06:56:24;20.17;;;15.20;;
22111;SDS011;11222;50.872;4.312;2022-07-23T06:58:50;17.65;;;15.55;;
22111;SDS011;11222;50.872;4.312;2022-07-23T07:01:16;23.00;;;15.50;;
22111;SDS011;11222;50.872;4.312;2022-07-23T07:03:42;18.90;;;15.25;;
22111;SDS011;11222;50.872;4.312;2022-07-23T07:06:08;19.30;;;16.08;;
22111;SDS011;11222;50.872;4.312;2022-07-23T07:08:34;18.27;;;14.73;;
22111;SDS011;11222;50.872;4.312;2022-07-23T07:11:00;18.10;;;15.13;;
22111;SDS011;11222;50.872;4.312;2022-07-23T07:13:25;20.35;;;14.95;;
22111;SDS011;11222;50.872;4.312;2022-07-23T07:15:51;19.33;;;14.55;;
22111;SDS011;11222;50.872;4.312;2022-07-23T07:18:16;16.10;;;14.18;;
22111;SDS011;11222;50.872;4.312;2022-07-23T07:20:42;17.80;;;14.90;;
22111;SDS011;11222;50.872;4.312;2022-07-23T07:23:08;20.02;;;15.57;;
22111;SDS011;11222;50.872;4.312;2022-07-23T07:25:34;19.70;;;15.75;;
22111;SDS011;11222;50.872;4.312;2022-07-23T07:28:00;22.05;;;15.27;;
22111;SDS011;11222;50.872;4.312;2022-07-23T07:30:25;20.25;;;14.40;;
22111;SDS011;11222;50.872;4.312;2022-07-23T07:32:51;18.08;;;13.57;;
22111;SDS011;11222;50.872;4.312;2022-07-23T07:35:17;17.70;;;14.38;;
22111;SDS011;11222;50.872;4.312;2022-07-23T07:37:43;17.15;;;13.32;;
22111;SDS011;11222;50.872;4.312;2022-07-23T07:40:08;16.88;;;13.10;;
22111;SDS011;11222;50.872;4.312;2022-07-23T07:42:34;17.23;;;12.90;;
22111;SDS011;11222;50.872;4.312;2022-07-23T07:45:09;13.13;;;11.63;;
22111;SDS011;11222;50.872;4.312;2022-07-23T07:47:35;13.02;;;11.40;;
22111;SDS011;11222;50.872;4.312;2022-07-23T07:50:00;14.15;;;11.13;;
22111;SDS011;11222;50.872;4.312;2022-07-23T07:52:26;13.25;;;11.00;;
22111;SDS011;11222;50.872;4.312;2022-07-23T07:54:51;12.02;;;10.75;;
22111;SDS011;11222;50.872;4.312;2022-07-23T07:57:17;11.00;;;9.80;;
22111;SDS011;11222;50.872;4.312;2022-07-23T07:59:43;11.63;;;9.80;;
22111;SDS011;11222;50.872;4.312;2022-07-23T08:02:08;11.02;;;9.98;;
22111;SDS011;11222;50.872;4.312;2022-07-23T08:04:34;13.75;;;11.30;;
22111;SDS011;11222;50.872;4.312;2022-07-23T08:07:00;11.95;;;10.85;;
22111;SDS011;11222;50.872;4.312;2022-07-23T08:09:25;14.65;;;10.65;;
22111;SDS011;11222;50.872;4.312;2022-07-23T08:11:51;10.90;;;9.88;;
22111;SDS011;11222;50.872;4.312;2022-07-23T08:14:17;12.00;;;10.35;;
22111;SDS011;11222;50.872;4.312;2022-07-23T08:16:43;12.60;;;10.35;;
22111;SDS011;11222;50.872;4.312;2022-07-23T08:19:09;11.80;;;9.80;;
22111;SDS011;11222;50.872;4.312;2022-07-23T08:21:34;10.80;;;9.70;;
22111;SDS011;11222;50.872;4.312;2022-07-23T08:24:02;12.57;;;11.18;;
22111;SDS011;11222;50.872;4.312;2022-07-23T08:26:28;12.93;;;10.70;;
22111;SDS011;11222;50.872;4.312;2022-07-23T08:28:54;11.75;;;10.55;;
22111;SDS011;11222;50.872;4.312;2022-07-23T08:31:19;13.15;;;11.15;;
22111;SDS011;11222;50.872;4.312;2022-07-23T08:33:45;17.48;;;11.40;;
22111;SDS011;11222;50.872;4.312;2022-07-23T08:36:10;12.73;;;11.27;;
22111;SDS011;11222;50.872;4.312;2022-07-23T08:38:36;12.80;;;11.50;;
22111;SDS011;11222;50.872;4.312;2022-07-23T08:41:08;11.98;;;10.77;;
22111;SDS011;11222;50.872;4.312;2022-07-23T08:43:34;13.68;;;11.63;;
22111;SDS011;11222;50.872;4.312;2022-07-23T08:46:01;12.52;;;11.10;;
22111;SDS011;11222;50.872;4.312;2022-07-23T08:48:31;12.00;;;10.73;;
22111;SDS011;11222;50.872;4.312;2022-07-23T08:50:59;13.57;;;9.75;;
22111;SDS011;11222;50.872;4.312;2022-07-23T08:53:27;13.68;;;10.15;;
22111;SDS011;11222;50.872;4.312;2022-07-23T08:55:55;12.82;;;11.55;;
22111;SDS011;11222;50.872;4.312;2022-07-23T08:58:22;12.02;;;10.52;;
22111;SDS011;11222;50.872;4.312;2022-07-23T09:00:49;14.48;;;10.90;;
22111;SDS011;11222;50.872;4.312;2022-07-23T09:03:15;12.48;;;11.20;;
22111;SDS011;11222;50.872;4.312;2022-07-23T09:05:46;11.23;;;10.18;;
22111;SDS011;11222;50.872;4.312;2022-07-23T09:10:58;12.05;;;10.60;;
22111;SDS011;11222;50.872;4.312;2022-07-23T09:15:59;23.55;;;19.88;;
22111;SDS011;11222;50.872;4.312;2022-07-23T09:24:05;12.82;;;9.90;;
22111;SDS011;11222;50.872;4.312;2022-07-23T09:29:18;10.18;;;9.10;;
22111;SDS011;11222;50.872;4.312;2022-07-23T09:34:27;9.25;;;8.32;;
22111;SDS011;11222;50.872;4.312;2022-07-23T09:36:57;10.23;;;8.52;;
22111;SDS011;11222;50.872;4.312;2022-07-23T09:39:33;10.23;;;8.93;;
22111;SDS011;11222;50.872;4.312;2022-07-23T09:44:51;11.35;;;9.20;;
22111;SDS011;11222;50.872;4.312;2022-07-23T09:47:18;10.23;;;8.65;;
22111;SDS011;11222;50.872;4.312;2022-07-23T09:50:07;10.50;;;8.88;;
22111;SDS011;11222;50.872;4.312;2022-07-23T09:55:07;10.32;;;8.48;;
22111;SDS011;11222;50.872;4.312;2022-07-23T09:57:34;9.50;;;8.60;;
22111;SDS011;11222;50.872;4.312;2022-07-23T10:00:01;10.60;;;7.80;;
22111;SDS011;11222;50.872;4.312;2022-07-23T10:02:33;11.45;;;8.10;;
22111;SDS011;11222;50.872;4.312;2022-07-23T10:04:59;8.15;;;7.15;;
22111;SDS011;11222;50.872;4.312;2022-07-23T10:07:27;8.32;;;7.28;;
22111;SDS011;11222;50.872;4.312;2022-07-23T10:09:56;8.13;;;7.35;;
22111;SDS011;11222;50.872;4.312;2022-07-23T10:12:23;8.43;;;6.82;;
22111;SDS011;11222;50.872;4.312;2022-07-23T10:15:09;8.27;;;7.32;;
22111;SDS011;11222;50.872;4.312;2022-07-23T10:17:35;9.30;;;8.38;;
22111;SDS011;11222;50.872;4.312;2022-07-23T10:20:01;9.68;;;8.45;;
22111;SDS011;11222;50.872;4.312;2022-07-23T10:22:33;9.20;;;8.32;;
22111;SDS011;11222;50.872;4.312;2022-07-23T10:39:05;10.02;;;7.53;;
22111;SDS011;11222;50.872;4.312;2022-07-23T10:44:43;8.55;;;7.80;;
22111;SDS011;11222;50.872;4.312;2022-07-23T10:47:11;8.90;;;8.00;;
22111;SDS011;11222;50.872;4.312;2022-07-23T10:50:16;8.88;;;8.02;;
22111;SDS011;11222;50.872;4.312;2022-07-23T10:58:01;8.98;;;8.10;;
22111;SDS011;11222;50.872;4.312;2022-07-23T11:00:29;9.52;;;8.45;;
22111;SDS011;11222;50.872;4.312;2022-07-23T11:03:00;9.70;;;8.52;;
22111;SDS011;11222;50.872;4.312;2022-07-23T11:18:52;10.03;;;8.87;;
22111;SDS011;11222;50.872;4.312;2022-07-23T11:23:58;9.65;;;8.73;;
22111;SDS011;11222;50.872;4.312;2022-07-23T11:32:18;40.65;;;9.93;;
22111;SDS011;11222;50.872;4.312;2022-07-23T11:34:42;8.60;;;7.80;;
22111;SDS011;11222;50.872;4.312;2022-07-23T11:37:12;8.07;;;7.38;;
22111;SDS011;11222;50.872;4.312;2022-07-23T11:39:57;8.23;;;7.45;;
22111;SDS011;11222;50.872;4.312;2022-07-23T11:42:23;8.25;;;6.95;;
22111;SDS011;11222;50.872;4.312;2022-07-23T11:44:49;14.93;;;8.00;;
22111;SDS011;11222;50.872;4.312;2022-07-23T11:47:20;8.65;;;7.75;;
22111;SDS011;11222;50.872;4.312;2022-07-23T11:49:57;8.75;;;7.85;;
22111;SDS011;11222;50.872;4.312;2022-07-23T11:52:25;12.80;;;8.20;;
22111;SDS011;11222;50.872;4.312;2022-07-23T11:54:52;15.73;;;8.77;;
22111;SDS011;11222;50.872;4.312;2022-07-23T11:57:25;29.92;;;9.35;;
22111;SDS011;11222;50.872;4.312;2022-07-23T11:59:57;8.43;;;7.65;;
22111;SDS011;11222;50.872;4.312;2022-07-23T12:02:26;9.10;;;8.07;;
22111;SDS011;11222;50.872;4.312;2022-07-23T12:04:52;9.60;;;8.60;;
22111;SDS011;11222;50.872;4.312;2022-07-23T12:07:29;8.40;;;7.40;;
22111;SDS011;11222;50.872;4.312;2022-07-23T12:09:58;9.07;;;7.07;;
22111;SDS011;11222;50.872;4.312;2022-07-23T12:12:38;7.25;;;6.55;;
22111;SDS011;11222;50.872;4.312;2022-07-23T12:15:05;23.73;;;8.82;;
22111;SDS011;11222;50.872;4.312;2022-07-23T12:17:34;9.88;;;8.23;;
22111;SDS011;11222;50.872;4.312;2022-07-23T12:20:02;22.13;;;9.38;;
22111;SDS011;11222;50.872;4.312;2022-07-23T12:22:38;9.45;;;7.57;;
22111;SDS011;11222;50.872;4.312;2022-07-23T12:25:07;8.90;;;7.63;;
22111;SDS011;11222;50.872;4.312;2022-07-23T12:27:37;7.90;;;7.13;;
22111;SDS011;11222;50.872;4.312;2022-07-23T12:30:16;8.88;;;8.00;;
22111;SDS011;11222;50.872;4.312;2022-07-23T12:32:47;9.25;;;7.53;;
22111;SDS011;11222;50.872;4.312;2022-07-23T12:35:14;7.97;;;7.00;;
22111;SDS011;11222;50.872;4.312;2022-07-23T12:37:42;9.63;;;7.85;;
22111;SDS011;11222;50.872;4.312;2022-07-23T12:43:00;11.20;;;7.60;;
22111;SDS011;11222;50.872;4.312;2022-07-23T12:45:28;9.18;;;7.28;;
22111;SDS011;11222;50.872;4.312;2022-07-23T12:50:53;8.18;;;7.38;;
22111;SDS011;11222;50.872;4.312;2022-07-23T12:53:21;7.88;;;7.10;;
22111;SDS011;11222;50.872;4.312;2022-07-23T12:55:47;7.75;;;7.13;;
22111;SDS011;11222;50.872;4.312;2022-07-23T12:58:17;25.27;;;8.27;;
22111;SDS011;11222;50.872;4.312;2022-07-23T13:00:54;13.85;;;7.32;;
22111;SDS011;11222;50.872;4.312;2022-07-23T13:06:09;7.60;;;6.32;;
22111;SDS011;11222;50.872;4.312;2022-07-23T13:08:39;7.47;;;6.70;;
22111;SDS011;11222;50.872;4.312;2022-07-23T13:11:06;7.40;;;6.65;;
22111;SDS011;11222;50.872;4.312;2022-07-23T13:13:33;9.55;;;6.78;;
22111;SDS011;11222;50.872;4.312;2022-07-23T13:16:00;7.68;;;6.93;;
22111;SDS011;11222;50.872;4.312;2022-07-23T13:18:26;7.40;;;6.43;;
22111;SDS011;11222;50.872;4.312;2022-07-23T13:20:53;9.30;;;6.22;;
22111;SDS011;11222;50.872;4.312;2022-07-23T13:23:19;7.82;;;5.90;;
22111;SDS011;11222;50.872;4.312;2022-07-23T13:25:46;7.57;;;5.65;;
22111;SDS011;11222;50.872;4.312;2022-07-23T13:28:13;8.65;;;6.15;;
22111;SDS011;11222;50.872;4.312;2022-07-23T13:30:40;6.90;;;6.20;;
22111;SDS011;11222;50.872;4.312;2022-07-23T13:33:06;10.40;;;6.57;;
22111;SDS011;11222;50.872;4.312;2022-07-23T13:35:33;7.57;;;6.78;;
22111;SDS011;11222;50.872;4.312;2022-07-23T13:38:00;7.10;;;5.95;;
22111;SDS011;11222;50.872;4.312;2022-07-23T13:40:26;12.65;;;7.03;;
22111;SDS011;11222;50.872;4.312;2022-07-23T13:42:52;10.00;;;6.80;;
22111;SDS011;11222;50.872;4.312;2022-07-23T13:45:18;7.00;;;6.30;;
22111;SDS011;11222;50.872;4.312;2022-07-23T13:47:44;7.72;;;6.40;;
22111;SDS011;11222;50.872;4.312;2022-07-23T13:50:09;7.65;;;6.28;;
22111;SDS011;11222;50.872;4.312;2022-07-23T13:52:35;6.95;;;6.20;;
22111;SDS011;11222;50.872;4.312;2022-07-23T13:55:01;7.28;;;6.25;;
22111;SDS011;11222;50.872;4.312;2022-07-23T13:57:31;6.57;;;5.75;;
22111;SDS011;11222;50.872;4.312;2022-07-23T13:59:57;7.13;;;5.95;;
22111;SDS011;11222;50.872;4.312;2022-07-23T14:02:23;6.30;;;5.70;;
22111;SDS011;11222;50.872;4.312;2022-07-23T14:04:49;7.82;;;5.70;;
22111;SDS011;11222;50.872;4.312;2022-07-23T14:07:16;11.73;;;6.82;;
22111;SDS011;11222;50.872;4.312;2022-07-23T14:09:42;7.88;;;6.50;;
22111;SDS011;11222;50.872;4.312;2022-07-23T14:12:08;8.35;;;6.40;;
22111;SDS011;11222;50.872;4.312;2022-07-23T14:14:33;7.32;;;5.63;;
22111;SDS011;11222;50.872;4.312;2022-07-23T14:16:59;7.25;;;6.05;;
22111;SDS011;11222;50.872;4.312;2022-07-23T14:19:25;6.68;;;5.97;;
22111;SDS011;11222;50.872;4.312;2022-07-23T14:21:51;12.05;;;6.30;;
22111;SDS011;11222;50.872;4.312;2022-07-23T14:24:17;6.50;;;5.47;;
22111;SDS011;11222;50.872;4.312;2022-07-23T14:26:42;6.78;;;6.15;;
22111;SDS011;11222;50.872;4.312;2022-07-23T14:29:08;7.38;;;6.38;;
22111;SDS011;11222;50.872;4.312;2022-07-23T14:31:34;8.45;;;5.70;;
22111;SDS011;11222;50.872;4.312;2022-07-23T14:34:00;9.57;;;6.22;;
22111;SDS011;11222;50.872;4.312;2022-07-23T14:36:26;8.32;;;6.57;;
22111;SDS011;11222;50.872;4.312;2022-07-23T14:38:52;9.32;;;6.97;;
22111;SDS011;11222;50.872;4.312;2022-07-23T14:41:18;9.77;;;6.60;;
22111;SDS011;11222;50.872;4.312;2022-07-23T14:43:44;9.65;;;6.20;;
22111;SDS011;11222;50.872;4.312;2022-07-23T14:46:10;9.45;;;6.18;;
22111;SDS011;11222;50.872;4.312;2022-07-23T14:48:37;8.38;;;6.63;;
22111;SDS011;11222;50.872;4.312;2022-07-23T14:51:03;7.15;;;6.22;;
22111;SDS011;11222;50.872;4.312;2022-07-23T14:53:29;7.07;;;6.38;;
22111;SDS011;11222;50.872;4.312;2022-07-23T14:55:55;6.63;;;5.88;;
22111;SDS011;11222;50.872;4.312;2022-07-23T14:58:22;10.00;;;6.20;;
22111;SDS011;11222;50.872;4.312;2022-07-23T15:00:48;6.43;;;5.82;;
22111;SDS011;11222;50.872;4.312;2022-07-23T15:03:14;8.07;;;6.30;;
22111;SDS011;11222;50.872;4.312;2022-07-23T15:05:40;7.75;;;6.95;;
22111;SDS011;11222;50.872;4.312;2022-07-23T15:08:06;7.95;;;6.70;;
22111;SDS011;11222;50.872;4.312;2022-07-23T15:10:31;9.77;;;6.38;;
22111;SDS011;11222;50.872;4.312;2022-07-23T15:12:57;9.52;;;6.97;;
22111;SDS011;11222;50.872;4.312;2022-07-23T15:15:23;10.70;;;7.07;;
22111;SDS011;11222;50.872;4.312;2022-07-23T15:17:49;10.00;;;6.85;;
22111;SDS011;11222;50.872;4.312;2022-07-23T15:20:14;8.82;;;6.32;;
22111;SDS011;11222;50.872;4.312;2022-07-23T15:22:40;7.78;;;6.30;;
22111;SDS011;11222;50.872;4.312;2022-07-23T15:25:06;8.75;;;6.75;;
22111;SDS011;11222;50.872;4.312;2022-07-23T15:27:32;8.27;;;6.95;;
22111;SDS011;11222;50.872;4.312;2022-07-23T15:29:58;7.75;;;6.30;;
22111;SDS011;11222;50.872;4.312;2022-07-23T15:32:25;11.45;;;7.30;;
22111;SDS011;11222;50.872;4.312;2022-07-23T15:34:52;6.70;;;6.10;;
22111;SDS011;11222;50.872;4.312;2022-07-23T15:37:18;8.95;;;6.90;;
22111;SDS011;11222;50.872;4.312;2022-07-23T15:39:44;7.03;;;6.28;;
22111;SDS011;11222;50.872;4.312;2022-07-23T15:42:10;8.57;;;6.47;;
22111;SDS011;11222;50.872;4.312;2022-07-23T15:44:35;7.60;;;6.90;;
22111;SDS011;11222;50.872;4.312;2022-07-23T15:47:01;7.32;;;6.55;;